sensor_id;sensor_type;location;lat;lon;timestamp;P1;durP1;ratioP1;P2;durP2;ratioP2
9559;SDS011;4818;50.860;4.648;2022-07-29T00:00:55;4.63;;;0.40;;
9559;SDS011;4818;50.860;4.648;2022-07-29T00:03:21;2.25;;;0.30;;
9559;SDS011;4818;50.860;4.648;2022-07-29T00:05:47;2.95;;;0.50;;
9559;SDS011;4818;50.860;4.648;2022-07-29T00:08:13;4.80;;;0.45;;
9559;SDS011;4818;50.860;4.648;2022-07-29T00:10:40;1.73;;;0.28;;
9559;SDS011;4818;50.860;4.648;2022-07-29T00:13:07;3.17;;;0.32;;
9559;SDS011;4818;50.860;4.648;2022-07-29T00:15:33;7.85;;;0.40;;
9559;SDS011;4818;50.860;4.648;2022-07-29T00:17:59;2.13;;;0.40;;
9559;SDS011;4818;50.860;4.648;2022-07-29T00:20:25;3.25;;;0.30;;
9559;SDS011;4818;50.860;4.648;2022-07-29T00:22:52;2.55;;;0.38;;
9559;SDS011;4818;50.860;4.648;2022-07-29T00:25:18;2.55;;;0.40;;
9559;SDS011;4818;50.860;4.648;2022-07-29T00:27:44;6.90;;;0.40;;
9559;SDS011;4818;50.860;4.648;2022-07-29T00:30:11;6.32;;;0.40;;
9559;SDS011;4818;50.860;4.648;2022-07-29T00:32:37;4.32;;;0.98;;
9559;SDS011;4818;50.860;4.648;2022-07-29T00:35:04;2.55;;;0.30;;
9559;SDS011;4818;50.860;4.648;2022-07-29T00:37:48;2.15;;;0.35;;
9559;SDS011;4818;50.860;4.648;2022-07-29T00:40:15;8.75;;;0.63;;
9559;SDS011;4818;50.860;4.648;2022-07-29T00:42:44;1.40;;;0.50;;
9559;SDS011;4818;50.860;4.648;2022-07-29T00:45:11;1.00;;;0.40;;
9559;SDS011;4818;50.860;4.648;2022-07-29T00:47:38;4.38;;;0.40;;
9559;SDS011;4818;50.860;4.648;2022-07-29T00:50:05;1.27;;;0.38;;
9559;SDS011;4818;50.860;4.648;2022-07-29T00:52:33;5.47;;;0.47;;
9559;SDS011;4818;50.860;4.648;2022-07-29T00:54:59;3.20;;;0.40;;
9559;SDS011;4818;50.860;4.648;2022-07-29T00:57:25;4.03;;;0.40;;
9559;SDS011;4818;50.860;4.648;2022-07-29T00:59:52;3.10;;;0.43;;
9559;SDS011;4818;50.860;4.648;2022-07-29T01:02:18;4.65;;;1.02;;
9559;SDS011;4818;50.860;4.648;2022-07-29T01:04:44;4.13;;;0.50;;
9559;SDS011;4818;50.860;4.648;2022-07-29T01:07:10;2.10;;;0.38;;
9559;SDS011;4818;50.860;4.648;2022-07-29T01:09:37;1.25;;;0.40;;
9559;SDS011;4818;50.860;4.648;2022-07-29T01:12:03;1.92;;;0.52;;
9559;SDS011;4818;50.860;4.648;2022-07-29T01:14:30;2.95;;;0.68;;
9559;SDS011;4818;50.860;4.648;2022-07-29T01:19:40;5.10;;;0.70;;
9559;SDS011;4818;50.860;4.648;2022-07-29T01:22:18;1.92;;;0.50;;
9559;SDS011;4818;50.860;4.648;2022-07-29T01:27:32;3.08;;;0.47;;
9559;SDS011;4818;50.860;4.648;2022-07-29T01:30:04;2.67;;;0.65;;
9559;SDS011;4818;50.860;4.648;2022-07-29T01:32:35;4.47;;;0.43;;
9559;SDS011;4818;50.860;4.648;2022-07-29T01:35:03;5.63;;;0.60;;
9559;SDS011;4818;50.860;4.648;2022-07-29T01:37:54;6.15;;;0.50;;
9559;SDS011;4818;50.860;4.648;2022-07-29T01:40:27;2.85;;;0.60;;
9559;SDS011;4818;50.860;4.648;2022-07-29T01:42:55;1.83;;;0.45;;
9559;SDS011;4818;50.860;4.648;2022-07-29T01:45:25;2.53;;;0.40;;
9559;SDS011;4818;50.860;4.648;2022-07-29T01:48:00;3.67;;;0.60;;
9559;SDS011;4818;50.860;4.648;2022-07-29T01:50:30;4.38;;;0.65;;
9559;SDS011;4818;50.860;4.648;2022-07-29T01:55:28;2.38;;;0.60;;
9559;SDS011;4818;50.860;4.648;2022-07-29T01:57:55;2.65;;;0.38;;
9559;SDS011;4818;50.860;4.648;2022-07-29T02:00:22;6.57;;;0.50;;
9559;SDS011;4818;50.860;4.648;2022-07-29T02:02:49;1.98;;;0.60;;
9559;SDS011;4818;50.860;4.648;2022-07-29T02:05:17;4.90;;;0.52;;
9559;SDS011;4818;50.860;4.648;2022-07-29T02:07:44;2.53;;;0.60;;
9559;SDS011;4818;50.860;4.648;2022-07-29T02:10:12;1.85;;;0.30;;
9559;SDS011;4818;50.860;4.648;2022-07-29T02:12:39;5.38;;;0.70;;
9559;SDS011;4818;50.860;4.648;2022-07-29T02:15:07;2.13;;;0.43;;
9559;SDS011;4818;50.860;4.648;2022-07-29T02:17:35;4.93;;;0.60;;
9559;SDS011;4818;50.860;4.648;2022-07-29T02:20:03;5.05;;;0.90;;
9559;SDS011;4818;50.860;4.648;2022-07-29T02:22:31;6.38;;;0.50;;
9559;SDS011;4818;50.860;4.648;2022-07-29T02:24:59;3.38;;;0.70;;
9559;SDS011;4818;50.860;4.648;2022-07-29T02:27:26;2.42;;;0.82;;
9559;SDS011;4818;50.860;4.648;2022-07-29T02:29:54;2.03;;;0.60;;
9559;SDS011;4818;50.860;4.648;2022-07-29T02:32:21;5.97;;;0.80;;
9559;SDS011;4818;50.860;4.648;2022-07-29T02:34:48;8.07;;;1.17;;
9559;SDS011;4818;50.860;4.648;2022-07-29T02:37:15;4.03;;;0.85;;
9559;SDS011;4818;50.860;4.648;2022-07-29T02:39:42;2.97;;;0.55;;
9559;SDS011;4818;50.860;4.648;2022-07-29T02:42:11;2.85;;;0.70;;
9559;SDS011;4818;50.860;4.648;2022-07-29T02:44:39;4.70;;;0.70;;
9559;SDS011;4818;50.860;4.648;2022-07-29T02:54:46;3.42;;;0.50;;
9559;SDS011;4818;50.860;4.648;2022-07-29T02:57:21;1.00;;;0.40;;
9559;SDS011;4818;50.860;4.648;2022-07-29T02:59:49;3.58;;;0.60;;
9559;SDS011;4818;50.860;4.648;2022-07-29T03:02:17;1.63;;;0.50;;
9559;SDS011;4818;50.860;4.648;2022-07-29T03:04:45;5.65;;;0.82;;
9559;SDS011;4818;50.860;4.648;2022-07-29T03:09:41;14.55;;;1.17;;
9559;SDS011;4818;50.860;4.648;2022-07-29T03:12:08;2.95;;;0.50;;
9559;SDS011;4818;50.860;4.648;2022-07-29T03:14:35;7.70;;;1.02;;
9559;SDS011;4818;50.860;4.648;2022-07-29T03:17:01;3.10;;;0.52;;
9559;SDS011;4818;50.860;4.648;2022-07-29T03:19:28;2.28;;;0.55;;
9559;SDS011;4818;50.860;4.648;2022-07-29T03:21:55;4.30;;;0.40;;
9559;SDS011;4818;50.860;4.648;2022-07-29T03:24:29;3.17;;;0.65;;
9559;SDS011;4818;50.860;4.648;2022-07-29T03:26:56;1.75;;;0.40;;
9559;SDS011;4818;50.860;4.648;2022-07-29T03:29:23;3.40;;;0.70;;
9559;SDS011;4818;50.860;4.648;2022-07-29T03:31:49;1.95;;;0.45;;
9559;SDS011;4818;50.860;4.648;2022-07-29T03:34:15;4.72;;;1.05;;
9559;SDS011;4818;50.860;4.648;2022-07-29T03:36:41;2.65;;;0.70;;
9559;SDS011;4818;50.860;4.648;2022-07-29T03:39:08;4.97;;;0.63;;
9559;SDS011;4818;50.860;4.648;2022-07-29T03:41:35;6.78;;;1.00;;
9559;SDS011;4818;50.860;4.648;2022-07-29T03:44:02;3.13;;;0.43;;
9559;SDS011;4818;50.860;4.648;2022-07-29T03:46:29;4.72;;;0.95;;
9559;SDS011;4818;50.860;4.648;2022-07-29T03:48:58;4.97;;;0.73;;
9559;SDS011;4818;50.860;4.648;2022-07-29T03:51:25;3.75;;;0.95;;
9559;SDS011;4818;50.860;4.648;2022-07-29T03:53:52;3.97;;;0.60;;
9559;SDS011;4818;50.860;4.648;2022-07-29T03:56:20;1.25;;;0.40;;
9559;SDS011;4818;50.860;4.648;2022-07-29T03:58:50;4.43;;;0.47;;
9559;SDS011;4818;50.860;4.648;2022-07-29T04:01:17;2.13;;;0.43;;
9559;SDS011;4818;50.860;4.648;2022-07-29T04:03:44;7.63;;;0.57;;
9559;SDS011;4818;50.860;4.648;2022-07-29T04:06:11;1.73;;;0.50;;
9559;SDS011;4818;50.860;4.648;2022-07-29T04:08:37;1.38;;;0.50;;
9559;SDS011;4818;50.860;4.648;2022-07-29T04:11:04;1.58;;;0.77;;
9559;SDS011;4818;50.860;4.648;2022-07-29T04:13:31;2.55;;;0.60;;
9559;SDS011;4818;50.860;4.648;2022-07-29T04:15:57;1.35;;;0.55;;
9559;SDS011;4818;50.860;4.648;2022-07-29T04:18:24;2.80;;;1.08;;
9559;SDS011;4818;50.860;4.648;2022-07-29T04:20:50;2.85;;;0.45;;
9559;SDS011;4818;50.860;4.648;2022-07-29T04:23:16;3.00;;;0.57;;
9559;SDS011;4818;50.860;4.648;2022-07-29T04:25:43;3.15;;;0.98;;
9559;SDS011;4818;50.860;4.648;2022-07-29T04:28:09;2.10;;;0.70;;
9559;SDS011;4818;50.860;4.648;2022-07-29T04:30:36;3.53;;;0.43;;
9559;SDS011;4818;50.860;4.648;2022-07-29T04:33:04;5.43;;;0.70;;
9559;SDS011;4818;50.860;4.648;2022-07-29T04:35:33;2.67;;;0.60;;
9559;SDS011;4818;50.860;4.648;2022-07-29T04:37:59;0.80;;;0.50;;
9559;SDS011;4818;50.860;4.648;2022-07-29T04:40:25;2.40;;;0.88;;
9559;SDS011;4818;50.860;4.648;2022-07-29T04:42:52;1.98;;;0.50;;
9559;SDS011;4818;50.860;4.648;2022-07-29T04:45:18;4.40;;;0.70;;
9559;SDS011;4818;50.860;4.648;2022-07-29T04:47:45;4.72;;;0.60;;
9559;SDS011;4818;50.860;4.648;2022-07-29T04:50:11;6.07;;;0.60;;
9559;SDS011;4818;50.860;4.648;2022-07-29T04:52:37;1.25;;;0.40;;
9559;SDS011;4818;50.860;4.648;2022-07-29T04:55:04;4.55;;;0.70;;
9559;SDS011;4818;50.860;4.648;2022-07-29T04:57:30;2.70;;;0.50;;
9559;SDS011;4818;50.860;4.648;2022-07-29T04:59:56;5.38;;;0.52;;
9559;SDS011;4818;50.860;4.648;2022-07-29T05:02:23;4.05;;;0.60;;
9559;SDS011;4818;50.860;4.648;2022-07-29T05:04:49;3.13;;;0.95;;
9559;SDS011;4818;50.860;4.648;2022-07-29T05:07:15;7.68;;;0.85;;
9559;SDS011;4818;50.860;4.648;2022-07-29T05:09:41;3.92;;;0.70;;
9559;SDS011;4818;50.860;4.648;2022-07-29T05:12:08;1.35;;;0.43;;
9559;SDS011;4818;50.860;4.648;2022-07-29T05:14:34;2.25;;;0.40;;
9559;SDS011;4818;50.860;4.648;2022-07-29T05:17:01;2.95;;;0.60;;
9559;SDS011;4818;50.860;4.648;2022-07-29T05:19:27;4.07;;;0.75;;
9559;SDS011;4818;50.860;4.648;2022-07-29T05:21:53;3.30;;;0.60;;
9559;SDS011;4818;50.860;4.648;2022-07-29T05:24:19;3.72;;;0.70;;
9559;SDS011;4818;50.860;4.648;2022-07-29T05:26:46;2.20;;;0.70;;
9559;SDS011;4818;50.860;4.648;2022-07-29T05:29:15;2.75;;;0.50;;
9559;SDS011;4818;50.860;4.648;2022-07-29T05:31:42;4.05;;;1.13;;
9559;SDS011;4818;50.860;4.648;2022-07-29T05:34:08;5.07;;;1.13;;
9559;SDS011;4818;50.860;4.648;2022-07-29T05:36:34;6.85;;;0.95;;
9559;SDS011;4818;50.860;4.648;2022-07-29T05:39:00;3.55;;;0.98;;
9559;SDS011;4818;50.860;4.648;2022-07-29T05:41:27;2.47;;;1.23;;
9559;SDS011;4818;50.860;4.648;2022-07-29T05:43:54;1.75;;;0.70;;
9559;SDS011;4818;50.860;4.648;2022-07-29T05:46:20;4.70;;;0.70;;
9559;SDS011;4818;50.860;4.648;2022-07-29T05:48:46;4.20;;;0.63;;
9559;SDS011;4818;50.860;4.648;2022-07-29T05:51:12;3.45;;;1.05;;
9559;SDS011;4818;50.860;4.648;2022-07-29T05:53:38;5.47;;;0.93;;
9559;SDS011;4818;50.860;4.648;2022-07-29T05:56:05;2.78;;;1.10;;
9559;SDS011;4818;50.860;4.648;2022-07-29T05:58:32;2.50;;;0.93;;
9559;SDS011;4818;50.860;4.648;2022-07-29T06:00:59;2.17;;;0.90;;
9559;SDS011;4818;50.860;4.648;2022-07-29T06:03:25;3.30;;;1.20;;
9559;SDS011;4818;50.860;4.648;2022-07-29T06:05:52;5.43;;;1.27;;
9559;SDS011;4818;50.860;4.648;2022-07-29T06:08:19;5.95;;;1.20;;
9559;SDS011;4818;50.860;4.648;2022-07-29T06:10:45;3.60;;;1.00;;
9559;SDS011;4818;50.860;4.648;2022-07-29T06:13:12;2.90;;;0.95;;
9559;SDS011;4818;50.860;4.648;2022-07-29T06:15:41;4.72;;;1.25;;
9559;SDS011;4818;50.860;4.648;2022-07-29T06:18:08;2.15;;;1.02;;
9559;SDS011;4818;50.860;4.648;2022-07-29T06:20:35;3.88;;;1.17;;
9559;SDS011;4818;50.860;4.648;2022-07-29T06:23:01;3.55;;;1.33;;
9559;SDS011;4818;50.860;4.648;2022-07-29T06:25:35;5.13;;;1.10;;
9559;SDS011;4818;50.860;4.648;2022-07-29T06:28:02;5.05;;;1.33;;
9559;SDS011;4818;50.860;4.648;2022-07-29T06:30:28;3.50;;;0.80;;
9559;SDS011;4818;50.860;4.648;2022-07-29T06:32:55;7.93;;;0.90;;
9559;SDS011;4818;50.860;4.648;2022-07-29T06:35:21;2.40;;;1.00;;
9559;SDS011;4818;50.860;4.648;2022-07-29T06:37:48;3.47;;;1.15;;
9559;SDS011;4818;50.860;4.648;2022-07-29T06:40:14;4.20;;;0.80;;
9559;SDS011;4818;50.860;4.648;2022-07-29T06:42:59;5.07;;;0.93;;
9559;SDS011;4818;50.860;4.648;2022-07-29T06:45:25;4.40;;;1.33;;
9559;SDS011;4818;50.860;4.648;2022-07-29T06:47:51;2.53;;;0.90;;
9559;SDS011;4818;50.860;4.648;2022-07-29T06:50:18;3.17;;;1.02;;
9559;SDS011;4818;50.860;4.648;2022-07-29T06:52:44;3.63;;;0.90;;
9559;SDS011;4818;50.860;4.648;2022-07-29T06:55:10;4.47;;;0.80;;
9559;SDS011;4818;50.860;4.648;2022-07-29T06:57:36;5.00;;;1.35;;
9559;SDS011;4818;50.860;4.648;2022-07-29T07:00:03;4.00;;;0.85;;
9559;SDS011;4818;50.860;4.648;2022-07-29T07:02:30;5.18;;;0.80;;
9559;SDS011;4818;50.860;4.648;2022-07-29T07:04:57;2.95;;;0.70;;
9559;SDS011;4818;50.860;4.648;2022-07-29T07:07:24;2.25;;;1.30;;
9559;SDS011;4818;50.860;4.648;2022-07-29T07:09:50;2.78;;;1.83;;
9559;SDS011;4818;50.860;4.648;2022-07-29T07:12:16;3.72;;;1.33;;
9559;SDS011;4818;50.860;4.648;2022-07-29T07:14:43;6.88;;;1.63;;
9559;SDS011;4818;50.860;4.648;2022-07-29T07:17:09;3.45;;;1.33;;
9559;SDS011;4818;50.860;4.648;2022-07-29T07:19:35;1.75;;;0.95;;
9559;SDS011;4818;50.860;4.648;2022-07-29T07:22:01;6.43;;;1.23;;
9559;SDS011;4818;50.860;4.648;2022-07-29T07:24:28;8.48;;;1.33;;
9559;SDS011;4818;50.860;4.648;2022-07-29T07:26:55;4.00;;;0.90;;
9559;SDS011;4818;50.860;4.648;2022-07-29T07:29:21;3.53;;;1.05;;
9559;SDS011;4818;50.860;4.648;2022-07-29T07:31:47;3.00;;;0.85;;
9559;SDS011;4818;50.860;4.648;2022-07-29T07:34:14;5.57;;;0.70;;
9559;SDS011;4818;50.860;4.648;2022-07-29T07:36:40;2.17;;;0.70;;
9559;SDS011;4818;50.860;4.648;2022-07-29T07:39:06;2.53;;;1.02;;
9559;SDS011;4818;50.860;4.648;2022-07-29T07:41:32;2.95;;;0.82;;
9559;SDS011;4818;50.860;4.648;2022-07-29T07:43:58;3.22;;;0.93;;
9559;SDS011;4818;50.860;4.648;2022-07-29T07:46:25;5.15;;;1.05;;
9559;SDS011;4818;50.860;4.648;2022-07-29T07:48:51;4.43;;;0.73;;
9559;SDS011;4818;50.860;4.648;2022-07-29T07:51:18;3.55;;;0.90;;
9559;SDS011;4818;50.860;4.648;2022-07-29T07:53:44;3.88;;;0.95;;
9559;SDS011;4818;50.860;4.648;2022-07-29T07:56:15;1.92;;;0.90;;
9559;SDS011;4818;50.860;4.648;2022-07-29T07:58:41;3.20;;;0.65;;
9559;SDS011;4818;50.860;4.648;2022-07-29T08:01:08;2.67;;;0.90;;
9559;SDS011;4818;50.860;4.648;2022-07-29T08:03:34;1.98;;;0.70;;
9559;SDS011;4818;50.860;4.648;2022-07-29T08:06:01;2.40;;;0.68;;
9559;SDS011;4818;50.860;4.648;2022-07-29T08:08:27;1.35;;;0.60;;
9559;SDS011;4818;50.860;4.648;2022-07-29T08:10:53;5.05;;;0.80;;
9559;SDS011;4818;50.860;4.648;2022-07-29T08:13:25;2.70;;;0.90;;
9559;SDS011;4818;50.860;4.648;2022-07-29T08:15:55;2.25;;;0.70;;
9559;SDS011;4818;50.860;4.648;2022-07-29T08:18:37;1.50;;;0.63;;
9559;SDS011;4818;50.860;4.648;2022-07-29T08:21:04;3.40;;;0.90;;
9559;SDS011;4818;50.860;4.648;2022-07-29T08:23:30;2.83;;;0.60;;
9559;SDS011;4818;50.860;4.648;2022-07-29T08:26:07;5.53;;;0.80;;
9559;SDS011;4818;50.860;4.648;2022-07-29T08:28:36;4.00;;;0.85;;
9559;SDS011;4818;50.860;4.648;2022-07-29T08:31:03;1.23;;;0.60;;
9559;SDS011;4818;50.860;4.648;2022-07-29T08:33:29;2.67;;;0.57;;
9559;SDS011;4818;50.860;4.648;2022-07-29T08:35:56;2.22;;;0.57;;
9559;SDS011;4818;50.860;4.648;2022-07-29T08:38:22;1.45;;;0.50;;
9559;SDS011;4818;50.860;4.648;2022-07-29T08:40:48;2.15;;;0.50;;
9559;SDS011;4818;50.860;4.648;2022-07-29T08:43:14;1.02;;;0.40;;
9559;SDS011;4818;50.860;4.648;2022-07-29T08:45:45;2.50;;;0.70;;
9559;SDS011;4818;50.860;4.648;2022-07-29T08:48:12;5.55;;;0.85;;
9559;SDS011;4818;50.860;4.648;2022-07-29T08:50:39;3.08;;;0.40;;
9559;SDS011;4818;50.860;4.648;2022-07-29T08:53:07;2.42;;;0.70;;
9559;SDS011;4818;50.860;4.648;2022-07-29T08:55:33;2.28;;;0.50;;
9559;SDS011;4818;50.860;4.648;2022-07-29T08:57:59;3.65;;;0.80;;
9559;SDS011;4818;50.860;4.648;2022-07-29T09:00:26;1.38;;;0.30;;
9559;SDS011;4818;50.860;4.648;2022-07-29T09:02:55;3.00;;;0.55;;
9559;SDS011;4818;50.860;4.648;2022-07-29T09:05:22;2.03;;;0.40;;
9559;SDS011;4818;50.860;4.648;2022-07-29T09:07:50;6.55;;;0.60;;
9559;SDS011;4818;50.860;4.648;2022-07-29T09:10:16;1.58;;;0.40;;
9559;SDS011;4818;50.860;4.648;2022-07-29T09:12:42;2.70;;;0.40;;
9559;SDS011;4818;50.860;4.648;2022-07-29T09:15:09;3.65;;;0.45;;
9559;SDS011;4818;50.860;4.648;2022-07-29T09:17:39;1.50;;;0.60;;
9559;SDS011;4818;50.860;4.648;2022-07-29T09:20:10;0.68;;;0.20;;
9559;SDS011;4818;50.860;4.648;2022-07-29T09:22:37;3.03;;;0.60;;
9559;SDS011;4818;50.860;4.648;2022-07-29T09:25:03;2.03;;;0.30;;
9559;SDS011;4818;50.860;4.648;2022-07-29T09:27:30;3.35;;;0.60;;
9559;SDS011;4818;50.860;4.648;2022-07-29T09:30:00;1.73;;;0.38;;
9559;SDS011;4818;50.860;4.648;2022-07-29T09:32:26;1.00;;;0.30;;
9559;SDS011;4818;50.860;4.648;2022-07-29T09:37:38;3.63;;;0.40;;
9559;SDS011;4818;50.860;4.648;2022-07-29T09:40:11;0.95;;;0.22;;
9559;SDS011;4818;50.860;4.648;2022-07-29T09:42:37;1.38;;;0.45;;
9559;SDS011;4818;50.860;4.648;2022-07-29T09:45:04;2.63;;;0.50;;
9559;SDS011;4818;50.860;4.648;2022-07-29T09:47:41;3.70;;;0.55;;
9559;SDS011;4818;50.860;4.648;2022-07-29T09:50:09;2.65;;;0.30;;
9559;SDS011;4818;50.860;4.648;2022-07-29T09:52:44;2.13;;;0.35;;
9559;SDS011;4818;50.860;4.648;2022-07-29T09:55:10;1.70;;;0.32;;
9559;SDS011;4818;50.860;4.648;2022-07-29T09:57:37;1.80;;;0.30;;
9559;SDS011;4818;50.860;4.648;2022-07-29T10:00:11;1.00;;;0.40;;
9559;SDS011;4818;50.860;4.648;2022-07-29T10:02:38;1.27;;;0.28;;
9559;SDS011;4818;50.860;4.648;2022-07-29T10:05:06;2.97;;;0.30;;
9559;SDS011;4818;50.860;4.648;2022-07-29T10:07:46;2.38;;;0.40;;
9559;SDS011;4818;50.860;4.648;2022-07-29T10:10:34;4.57;;;0.35;;
9559;SDS011;4818;50.860;4.648;2022-07-29T10:13:00;0.60;;;0.30;;
9559;SDS011;4818;50.860;4.648;2022-07-29T10:15:28;1.20;;;0.20;;
9559;SDS011;4818;50.860;4.648;2022-07-29T10:17:55;0.93;;;0.30;;
9559;SDS011;4818;50.860;4.648;2022-07-29T10:20:23;1.10;;;0.20;;
9559;SDS011;4818;50.860;4.648;2022-07-29T10:22:50;2.78;;;0.30;;
9559;SDS011;4818;50.860;4.648;2022-07-29T10:25:17;1.80;;;0.40;;
9559;SDS011;4818;50.860;4.648;2022-07-29T10:27:43;1.17;;;0.30;;
9559;SDS011;4818;50.860;4.648;2022-07-29T10:30:13;4.55;;;0.30;;
9559;SDS011;4818;50.860;4.648;2022-07-29T10:38:25;2.83;;;0.30;;
9559;SDS011;4818;50.860;4.648;2022-07-29T10:43:51;0.60;;;0.30;;
9559;SDS011;4818;50.860;4.648;2022-07-29T10:46:18;2.42;;;0.30;;
9559;SDS011;4818;50.860;4.648;2022-07-29T10:59:46;0.82;;;0.20;;
9559;SDS011;4818;50.860;4.648;2022-07-29T11:05:05;0.50;;;0.20;;
9559;SDS011;4818;50.860;4.648;2022-07-29T11:07:32;3.17;;;0.30;;
9559;SDS011;4818;50.860;4.648;2022-07-29T11:15:07;1.55;;;0.40;;
9559;SDS011;4818;50.860;4.648;2022-07-29T11:31:17;3.50;;;0.40;;
9559;SDS011;4818;50.860;4.648;2022-07-29T11:36:12;0.85;;;0.30;;
9559;SDS011;4818;50.860;4.648;2022-07-29T11:38:39;1.33;;;0.57;;
9559;SDS011;4818;50.860;4.648;2022-07-29T11:41:24;1.50;;;0.30;;
9559;SDS011;4818;50.860;4.648;2022-07-29T11:43:52;1.95;;;0.30;;
9559;SDS011;4818;50.860;4.648;2022-07-29T11:49:03;1.67;;;0.40;;
9559;SDS011;4818;50.860;4.648;2022-07-29T11:51:30;1.10;;;0.20;;
9559;SDS011;4818;50.860;4.648;2022-07-29T11:53:57;0.80;;;0.22;;
9559;SDS011;4818;50.860;4.648;2022-07-29T11:56:23;1.10;;;0.30;;
9559;SDS011;4818;50.860;4.648;2022-07-29T11:59:01;5.57;;;0.47;;
9559;SDS011;4818;50.860;4.648;2022-07-29T12:01:29;1.50;;;0.30;;
9559;SDS011;4818;50.860;4.648;2022-07-29T12:04:04;1.23;;;0.30;;
9559;SDS011;4818;50.860;4.648;2022-07-29T12:06:30;1.98;;;0.43;;
9559;SDS011;4818;50.860;4.648;2022-07-29T12:08:58;1.52;;;0.40;;
9559;SDS011;4818;50.860;4.648;2022-07-29T12:11:25;1.77;;;0.40;;
9559;SDS011;4818;50.860;4.648;2022-07-29T12:13:52;1.50;;;0.40;;
9559;SDS011;4818;50.860;4.648;2022-07-29T12:16:19;1.20;;;0.40;;
9559;SDS011;4818;50.860;4.648;2022-07-29T12:18:54;0.82;;;0.32;;
9559;SDS011;4818;50.860;4.648;2022-07-29T12:21:21;1.30;;;0.30;;
9559;SDS011;4818;50.860;4.648;2022-07-29T12:23:55;1.60;;;0.38;;
9559;SDS011;4818;50.860;4.648;2022-07-29T12:26:21;2.28;;;0.40;;
9559;SDS011;4818;50.860;4.648;2022-07-29T12:28:48;1.27;;;0.30;;
9559;SDS011;4818;50.860;4.648;2022-07-29T12:31:15;1.95;;;0.30;;
9559;SDS011;4818;50.860;4.648;2022-07-29T12:33:42;3.70;;;0.43;;
9559;SDS011;4818;50.860;4.648;2022-07-29T12:36:17;3.63;;;0.30;;
9559;SDS011;4818;50.860;4.648;2022-07-29T12:38:43;1.83;;;0.40;;
9559;SDS011;4818;50.860;4.648;2022-07-29T12:41:10;0.93;;;0.30;;
9559;SDS011;4818;50.860;4.648;2022-07-29T12:43:36;1.83;;;0.40;;
9559;SDS011;4818;50.860;4.648;2022-07-29T12:46:13;3.70;;;0.55;;
9559;SDS011;4818;50.860;4.648;2022-07-29T12:48:40;3.50;;;0.50;;
9559;SDS011;4818;50.860;4.648;2022-07-29T12:51:08;2.28;;;0.30;;
9559;SDS011;4818;50.860;4.648;2022-07-29T12:53:35;3.63;;;0.57;;
9559;SDS011;4818;50.860;4.648;2022-07-29T12:56:02;2.42;;;0.52;;
9559;SDS011;4818;50.860;4.648;2022-07-29T12:58:39;2.25;;;0.55;;
9559;SDS011;4818;50.860;4.648;2022-07-29T13:01:06;3.25;;;0.45;;
9559;SDS011;4818;50.860;4.648;2022-07-29T13:03:52;1.00;;;0.38;;
9559;SDS011;4818;50.860;4.648;2022-07-29T13:06:57;2.00;;;0.60;;
9559;SDS011;4818;50.860;4.648;2022-07-29T13:09:14;4.88;;;0.30;;
9559;SDS011;4818;50.860;4.648;2022-07-29T13:11:42;3.38;;;0.40;;
9559;SDS011;4818;50.860;4.648;2022-07-29T13:14:10;1.25;;;0.50;;
9559;SDS011;4818;50.860;4.648;2022-07-29T13:16:37;1.95;;;0.40;;
9559;SDS011;4818;50.860;4.648;2022-07-29T13:19:04;4.60;;;0.50;;
9559;SDS011;4818;50.860;4.648;2022-07-29T13:21:31;2.38;;;0.40;;
9559;SDS011;4818;50.860;4.648;2022-07-29T13:23:57;4.18;;;0.38;;
9559;SDS011;4818;50.860;4.648;2022-07-29T13:26:24;2.20;;;0.40;;
9559;SDS011;4818;50.860;4.648;2022-07-29T13:28:50;1.85;;;0.40;;
9559;SDS011;4818;50.860;4.648;2022-07-29T13:31:19;1.83;;;0.50;;
9559;SDS011;4818;50.860;4.648;2022-07-29T13:33:46;3.75;;;0.43;;
9559;SDS011;4818;50.860;4.648;2022-07-29T13:36:14;1.67;;;0.57;;
9559;SDS011;4818;50.860;4.648;2022-07-29T13:38:41;3.92;;;0.50;;
9559;SDS011;4818;50.860;4.648;2022-07-29T13:41:07;1.40;;;0.40;;
9559;SDS011;4818;50.860;4.648;2022-07-29T13:43:34;4.03;;;0.55;;
9559;SDS011;4818;50.860;4.648;2022-07-29T13:46:00;3.10;;;0.30;;
9559;SDS011;4818;50.860;4.648;2022-07-29T13:48:26;5.55;;;0.63;;
9559;SDS011;4818;50.860;4.648;2022-07-29T13:50:53;2.80;;;0.47;;
9559;SDS011;4818;50.860;4.648;2022-07-29T13:53:19;0.95;;;0.30;;
9559;SDS011;4818;50.860;4.648;2022-07-29T13:55:45;4.28;;;0.50;;
9559;SDS011;4818;50.860;4.648;2022-07-29T13:58:11;3.28;;;0.52;;
9559;SDS011;4818;50.860;4.648;2022-07-29T14:00:38;4.13;;;0.80;;
9559;SDS011;4818;50.860;4.648;2022-07-29T14:03:04;4.82;;;0.70;;
9559;SDS011;4818;50.860;4.648;2022-07-29T14:05:31;2.42;;;0.57;;
9559;SDS011;4818;50.860;4.648;2022-07-29T14:07:57;2.45;;;0.50;;
9559;SDS011;4818;50.860;4.648;2022-07-29T14:10:24;2.13;;;0.70;;
9559;SDS011;4818;50.860;4.648;2022-07-29T14:12:50;3.53;;;0.60;;
9559;SDS011;4818;50.860;4.648;2022-07-29T14:15:16;2.90;;;0.73;;
9559;SDS011;4818;50.860;4.648;2022-07-29T14:17:42;2.38;;;0.40;;
9559;SDS011;4818;50.860;4.648;2022-07-29T14:20:09;2.75;;;0.60;;
9559;SDS011;4818;50.860;4.648;2022-07-29T14:22:35;1.95;;;0.68;;
9559;SDS011;4818;50.860;4.648;2022-07-29T14:25:02;3.00;;;0.80;;
9559;SDS011;4818;50.860;4.648;2022-07-29T14:27:28;5.65;;;1.25;;
9559;SDS011;4818;50.860;4.648;2022-07-29T14:29:54;2.97;;;0.73;;
9559;SDS011;4818;50.860;4.648;2022-07-29T14:32:20;5.43;;;2.00;;
9559;SDS011;4818;50.860;4.648;2022-07-29T14:34:47;3.85;;;0.90;;
9559;SDS011;4818;50.860;4.648;2022-07-29T14:37:13;6.15;;;0.70;;
9559;SDS011;4818;50.860;4.648;2022-07-29T14:39:39;1.77;;;0.55;;
9559;SDS011;4818;50.860;4.648;2022-07-29T14:42:05;2.28;;;0.60;;
9559;SDS011;4818;50.860;4.648;2022-07-29T14:44:33;2.33;;;0.60;;
9559;SDS011;4818;50.860;4.648;2022-07-29T14:47:00;3.95;;;1.00;;
9559;SDS011;4818;50.860;4.648;2022-07-29T14:49:26;2.60;;;0.88;;
9559;SDS011;4818;50.860;4.648;2022-07-29T14:51:53;2.05;;;0.52;;
9559;SDS011;4818;50.860;4.648;2022-07-29T14:54:19;3.10;;;0.80;;
9559;SDS011;4818;50.860;4.648;2022-07-29T14:56:46;9.00;;;0.85;;
9559;SDS011;4818;50.860;4.648;2022-07-29T14:59:14;2.85;;;0.50;;
9559;SDS011;4818;50.860;4.648;2022-07-29T15:01:40;1.42;;;0.60;;
9559;SDS011;4818;50.860;4.648;2022-07-29T15:04:06;1.63;;;0.45;;
9559;SDS011;4818;50.860;4.648;2022-07-29T15:06:33;1.17;;;0.50;;
9559;SDS011;4818;50.860;4.648;2022-07-29T15:08:59;1.75;;;0.40;;
9559;SDS011;4818;50.860;4.648;2022-07-29T15:11:25;3.03;;;0.50;;
9559;SDS011;4818;50.860;4.648;2022-07-29T15:13:52;1.67;;;0.68;;
9559;SDS011;4818;50.860;4.648;2022-07-29T15:16:18;8.02;;;0.93;;
9559;SDS011;4818;50.860;4.648;2022-07-29T15:18:44;3.83;;;0.45;;
9559;SDS011;4818;50.860;4.648;2022-07-29T15:21:11;2.00;;;0.50;;
9559;SDS011;4818;50.860;4.648;2022-07-29T15:23:37;2.17;;;0.40;;
9559;SDS011;4818;50.860;4.648;2022-07-29T15:26:03;3.75;;;0.60;;
9559;SDS011;4818;50.860;4.648;2022-07-29T15:28:30;2.88;;;0.70;;
9559;SDS011;4818;50.860;4.648;2022-07-29T15:30:56;2.40;;;0.40;;
9559;SDS011;4818;50.860;4.648;2022-07-29T15:33:23;1.80;;;0.65;;
9559;SDS011;4818;50.860;4.648;2022-07-29T15:35:49;4.05;;;0.60;;
9559;SDS011;4818;50.860;4.648;2022-07-29T15:38:16;2.63;;;0.40;;
9559;SDS011;4818;50.860;4.648;2022-07-29T15:40:42;2.45;;;0.30;;
9559;SDS011;4818;50.860;4.648;2022-07-29T15:43:10;4.82;;;0.50;;
9559;SDS011;4818;50.860;4.648;2022-07-29T15:45:37;2.17;;;0.35;;
9559;SDS011;4818;50.860;4.648;2022-07-29T15:48:05;0.98;;;0.30;;
9559;SDS011;4818;50.860;4.648;2022-07-29T15:50:31;2.45;;;0.40;;
9559;SDS011;4818;50.860;4.648;2022-07-29T15:52:57;3.55;;;0.40;;
9559;SDS011;4818;50.860;4.648;2022-07-29T15:55:24;1.02;;;0.30;;
9559;SDS011;4818;50.860;4.648;2022-07-29T15:57:50;2.45;;;0.30;;
9559;SDS011;4818;50.860;4.648;2022-07-29T16:00:17;1.42;;;0.60;;
9559;SDS011;4818;50.860;4.648;2022-07-29T16:02:43;18.48;;;0.93;;
9559;SDS011;4818;50.860;4.648;2022-07-29T16:05:10;2.40;;;0.40;;
9559;SDS011;4818;50.860;4.648;2022-07-29T16:07:39;3.35;;;0.40;;
9559;SDS011;4818;50.860;4.648;2022-07-29T16:10:05;7.22;;;0.40;;
9559;SDS011;4818;50.860;4.648;2022-07-29T16:12:32;5.72;;;0.50;;
9559;SDS011;4818;50.860;4.648;2022-07-29T16:14:58;2.13;;;0.60;;
9559;SDS011;4818;50.860;4.648;2022-07-29T16:17:24;3.17;;;0.40;;
9559;SDS011;4818;50.860;4.648;2022-07-29T16:19:51;2.85;;;0.50;;
9559;SDS011;4818;50.860;4.648;2022-07-29T16:22:18;1.60;;;0.50;;
9559;SDS011;4818;50.860;4.648;2022-07-29T16:24:44;2.58;;;0.50;;